sensor_id;sensor_type;location;lat;lon;timestamp;temperature;humidity
16700;DHT22;8466;52.286;21.124;2023-11-21T00:01:08;0.20;99.90
16700;DHT22;8466;52.286;21.124;2023-11-21T00:03:36;0.30;99.90
16700;DHT22;8466;52.286;21.124;2023-11-21T00:06:06;0.20;99.90
16700;DHT22;8466;52.286;21.124;2023-11-21T00:08:36;0.20;99.90
16700;DHT22;8466;52.286;21.124;2023-11-21T00:11:05;0.20;99.90
16700;DHT22;8466;52.286;21.124;2023-11-21T00:13:34;0.20;99.90
16700;DHT22;8466;52.286;21.124;2023-11-21T00:16:04;0.20;99.90
16700;DHT22;8466;52.286;21.124;2023-11-21T00:18:34;0.20;99.90
16700;DHT22;8466;52.286;21.124;2023-11-21T00:21:03;0.20;99.90
16700;DHT22;8466;52.286;21.124;2023-11-21T00:23:32;0.20;99.90
16700;DHT22;8466;52.286;21.124;2023-11-21T00:26:01;0.20;99.90
16700;DHT22;8466;52.286;21.124;2023-11-21T00:28:31;0.20;99.90
16700;DHT22;8466;52.286;21.124;2023-11-21T00:30:59;0.20;99.90
16700;DHT22;8466;52.286;21.124;2023-11-21T00:33:28;0.20;99.90
16700;DHT22;8466;52.286;21.124;2023-11-21T00:35:58;0.20;99.90
16700;DHT22;8466;52.286;21.124;2023-11-21T00:38:27;0.10;99.90
16700;DHT22;8466;52.286;21.124;2023-11-21T00:40:56;0.10;99.90
16700;DHT22;8466;52.286;21.124;2023-11-21T00:43:25;0.20;99.90
16700;DHT22;8466;52.286;21.124;2023-11-21T00:45:53;0.20;99.90
16700;DHT22;8466;52.286;21.124;2023-11-21T00:48:22;0.20;99.90
16700;DHT22;8466;52.286;21.124;2023-11-21T00:50:51;0.10;99.90
16700;DHT22;8466;52.286;21.124;2023-11-21T00:53:21;0.20;99.90
16700;DHT22;8466;52.286;21.124;2023-11-21T00:55:50;0.10;99.90
16700;DHT22;8466;52.286;21.124;2023-11-21T00:58:19;0.10;99.90
16700;DHT22;8466;52.286;21.124;2023-11-21T01:00:48;0.10;99.90
16700;DHT22;8466;52.286;21.124;2023-11-21T01:03:16;0.00;99.90
16700;DHT22;8466;52.286;21.124;2023-11-21T01:05:45;0.10;99.90
16700;DHT22;8466;52.286;21.124;2023-11-21T01:08:14;0.10;99.90
16700;DHT22;8466;52.286;21.124;2023-11-21T01:10:44;0.00;99.90
16700;DHT22;8466;52.286;21.124;2023-11-21T01:13:14;0.00;99.90
16700;DHT22;8466;52.286;21.124;2023-11-21T01:15:44;0.00;99.90
16700;DHT22;8466;52.286;21.124;2023-11-21T01:18:13;0.00;99.90
16700;DHT22;8466;52.286;21.124;2023-11-21T01:20:42;0.00;99.90
16700;DHT22;8466;52.286;21.124;2023-11-21T01:23:11;0.10;99.90
16700;DHT22;8466;52.286;21.124;2023-11-21T01:25:40;0.00;99.90
16700;DHT22;8466;52.286;21.124;2023-11-21T01:28:10;0.00;99.90
16700;DHT22;8466;52.286;21.124;2023-11-21T01:30:39;0.00;99.90
16700;DHT22;8466;52.286;21.124;2023-11-21T01:33:08;0.00;99.90
16700;DHT22;8466;52.286;21.124;2023-11-21T01:35:36;0.00;99.90
16700;DHT22;8466;52.286;21.124;2023-11-21T01:38:05;0.00;99.90
16700;DHT22;8466;52.286;21.124;2023-11-21T01:40:35;-0.10;99.90
16700;DHT22;8466;52.286;21.124;2023-11-21T01:43:04;-0.10;99.90
16700;DHT22;8466;52.286;21.124;2023-11-21T01:45:34;0.00;99.90
16700;DHT22;8466;52.286;21.124;2023-11-21T01:48:03;0.00;99.90
16700;DHT22;8466;52.286;21.124;2023-11-21T01:50:34;0.10;99.90
16700;DHT22;8466;52.286;21.124;2023-11-21T01:53:03;0.10;99.90
16700;DHT22;8466;52.286;21.124;2023-11-21T01:55:33;0.10;99.90
16700;DHT22;8466;52.286;21.124;2023-11-21T01:58:03;0.00;99.90
16700;DHT22;8466;52.286;21.124;2023-11-21T02:00:33;0.00;99.90
16700;DHT22;8466;52.286;21.124;2023-11-21T02:03:02;0.00;99.90
16700;DHT22;8466;52.286;21.124;2023-11-21T02:05:32;0.00;99.90
16700;DHT22;8466;52.286;21.124;2023-11-21T02:08:00;-0.20;99.90
16700;DHT22;8466;52.286;21.124;2023-11-21T02:10:32;-0.10;99.90
16700;DHT22;8466;52.286;21.124;2023-11-21T02:13:01;-0.10;99.90
16700;DHT22;8466;52.286;21.124;2023-11-21T02:15:30;0.00;99.90
16700;DHT22;8466;52.286;21.124;2023-11-21T02:18:00;0.00;99.90
16700;DHT22;8466;52.286;21.124;2023-11-21T02:20:30;0.00;99.90
16700;DHT22;8466;52.286;21.124;2023-11-21T02:23:03;-0.10;99.90
16700;DHT22;8466;52.286;21.124;2023-11-21T02:25:33;-0.10;99.90
16700;DHT22;8466;52.286;21.124;2023-11-21T02:28:04;0.00;99.90
16700;DHT22;8466;52.286;21.124;2023-11-21T02:30:34;-0.10;99.90
16700;DHT22;8466;52.286;21.124;2023-11-21T02:33:04;0.00;99.90
16700;DHT22;8466;52.286;21.124;2023-11-21T02:35:33;0.00;99.90
16700;DHT22;8466;52.286;21.124;2023-11-21T02:38:03;-0.10;99.90
16700;DHT22;8466;52.286;21.124;2023-11-21T02:40:33;-0.20;99.90
16700;DHT22;8466;52.286;21.124;2023-11-21T02:43:02;-0.20;99.90
16700;DHT22;8466;52.286;21.124;2023-11-21T02:45:33;-0.20;99.90
16700;DHT22;8466;52.286;21.124;2023-11-21T02:48:03;-0.20;99.90
16700;DHT22;8466;52.286;21.124;2023-11-21T02:50:33;-0.20;99.90
16700;DHT22;8466;52.286;21.124;2023-11-21T02:53:03;-0.20;99.90
16700;DHT22;8466;52.286;21.124;2023-11-21T02:55:33;-0.20;99.90
16700;DHT22;8466;52.286;21.124;2023-11-21T02:58:03;-0.10;99.90
16700;DHT22;8466;52.286;21.124;2023-11-21T03:00:32;-0.10;99.90
16700;DHT22;8466;52.286;21.124;2023-11-21T03:03:01;-0.10;99.90
16700;DHT22;8466;52.286;21.124;2023-11-21T03:05:30;-0.10;99.90
16700;DHT22;8466;52.286;21.124;2023-11-21T03:07:58;0.00;99.90
16700;DHT22;8466;52.286;21.124;2023-11-21T03:10:28;-0.20;99.90
16700;DHT22;8466;52.286;21.124;2023-11-21T03:12:57;-0.20;99.90
16700;DHT22;8466;52.286;21.124;2023-11-21T03:15:26;-0.20;99.90
16700;DHT22;8466;52.286;21.124;2023-11-21T03:17:54;-0.20;99.90
16700;DHT22;8466;52.286;21.124;2023-11-21T03:20:24;-0.30;99.90
16700;DHT22;8466;52.286;21.124;2023-11-21T03:22:53;-0.30;99.90
16700;DHT22;8466;52.286;21.124;2023-11-21T03:25:21;-0.20;99.90
16700;DHT22;8466;52.286;21.124;2023-11-21T03:27:53;-0.30;99.90
16700;DHT22;8466;52.286;21.124;2023-11-21T03:30:21;-0.20;99.90
16700;DHT22;8466;52.286;21.124;2023-11-21T03:32:50;-0.20;99.90
16700;DHT22;8466;52.286;21.124;2023-11-21T03:35:20;-0.20;99.90
16700;DHT22;8466;52.286;21.124;2023-11-21T03:37:49;-0.30;99.90
16700;DHT22;8466;52.286;21.124;2023-11-21T03:40:18;-0.20;99.90
16700;DHT22;8466;52.286;21.124;2023-11-21T03:42:48;-0.20;99.90
16700;DHT22;8466;52.286;21.124;2023-11-21T03:45:19;-0.20;99.90
16700;DHT22;8466;52.286;21.124;2023-11-21T03:47:48;-0.30;99.90
16700;DHT22;8466;52.286;21.124;2023-11-21T03:50:17;-0.30;99.90
16700;DHT22;8466;52.286;21.124;2023-11-21T03:52:45;-0.30;99.90
16700;DHT22;8466;52.286;21.124;2023-11-21T03:55:14;-0.40;99.90
16700;DHT22;8466;52.286;21.124;2023-11-21T03:57:44;-0.40;99.90
16700;DHT22;8466;52.286;21.124;2023-11-21T04:00:13;-0.40;99.90
16700;DHT22;8466;52.286;21.124;2023-11-21T04:02:45;-0.50;99.90
16700;DHT22;8466;52.286;21.124;2023-11-21T04:05:14;-0.50;99.90
16700;DHT22;8466;52.286;21.124;2023-11-21T04:07:42;-0.60;99.90
16700;DHT22;8466;52.286;21.124;2023-11-21T04:10:11;-0.60;99.90
16700;DHT22;8466;52.286;21.124;2023-11-21T04:12:40;-0.50;99.90
16700;DHT22;8466;52.286;21.124;2023-11-21T04:15:10;-0.40;99.90
16700;DHT22;8466;52.286;21.124;2023-11-21T04:17:40;-0.40;99.90
16700;DHT22;8466;52.286;21.124;2023-11-21T04:20:11;-0.40;99.90
16700;DHT22;8466;52.286;21.124;2023-11-21T04:22:40;-0.50;99.90
16700;DHT22;8466;52.286;21.124;2023-11-21T04:25:14;-0.40;99.90
16700;DHT22;8466;52.286;21.124;2023-11-21T04:27:43;-0.50;99.90
16700;DHT22;8466;52.286;21.124;2023-11-21T04:30:13;-0.60;99.90
16700;DHT22;8466;52.286;21.124;2023-11-21T04:32:42;-0.60;99.90
16700;DHT22;8466;52.286;21.124;2023-11-21T04:35:12;-0.50;99.90
16700;DHT22;8466;52.286;21.124;2023-11-21T04:37:42;-0.50;99.90
16700;DHT22;8466;52.286;21.124;2023-11-21T04:40:11;-0.50;99.90
16700;DHT22;8466;52.286;21.124;2023-11-21T04:42:40;-0.50;99.90
16700;DHT22;8466;52.286;21.124;2023-11-21T04:45:10;-0.50;99.90
16700;DHT22;8466;52.286;21.124;2023-11-21T04:47:40;-0.50;99.90
16700;DHT22;8466;52.286;21.124;2023-11-21T04:50:09;-0.50;99.90
16700;DHT22;8466;52.286;21.124;2023-11-21T04:52:39;-0.50;99.90
16700;DHT22;8466;52.286;21.124;2023-11-21T04:55:08;-0.50;99.90
16700;DHT22;8466;52.286;21.124;2023-11-21T04:57:38;-0.50;99.90
16700;DHT22;8466;52.286;21.124;2023-11-21T05:00:10;-0.60;99.90
16700;DHT22;8466;52.286;21.124;2023-11-21T05:02:40;-0.60;99.90
16700;DHT22;8466;52.286;21.124;2023-11-21T05:05:11;-0.60;99.90
16700;DHT22;8466;52.286;21.124;2023-11-21T05:07:41;-0.60;99.90
16700;DHT22;8466;52.286;21.124;2023-11-21T05:10:10;-0.60;99.90
16700;DHT22;8466;52.286;21.124;2023-11-21T05:12:42;-0.60;99.90
16700;DHT22;8466;52.286;21.124;2023-11-21T05:15:14;-0.60;99.90
16700;DHT22;8466;52.286;21.124;2023-11-21T05:17:44;-0.60;99.90
16700;DHT22;8466;52.286;21.124;2023-11-21T05:20:14;-0.50;99.90
16700;DHT22;8466;52.286;21.124;2023-11-21T05:22:50;-0.60;99.90
16700;DHT22;8466;52.286;21.124;2023-11-21T05:25:18;-0.60;99.90
16700;DHT22;8466;52.286;21.124;2023-11-21T05:27:47;-0.60;99.90
16700;DHT22;8466;52.286;21.124;2023-11-21T05:30:16;-0.60;99.90
16700;DHT22;8466;52.286;21.124;2023-11-21T05:32:45;-0.60;99.90
16700;DHT22;8466;52.286;21.124;2023-11-21T05:35:14;-0.60;99.90
16700;DHT22;8466;52.286;21.124;2023-11-21T05:37:44;-0.60;99.90
16700;DHT22;8466;52.286;21.124;2023-11-21T05:40:16;-0.60;99.90
16700;DHT22;8466;52.286;21.124;2023-11-21T05:42:45;-0.50;99.90
16700;DHT22;8466;52.286;21.124;2023-11-21T05:45:14;-0.60;99.90
16700;DHT22;8466;52.286;21.124;2023-11-21T05:47:44;-0.70;99.90
16700;DHT22;8466;52.286;21.124;2023-11-21T05:50:15;-0.60;99.90
16700;DHT22;8466;52.286;21.124;2023-11-21T05:52:46;-0.70;99.90
16700;DHT22;8466;52.286;21.124;2023-11-21T05:55:17;-0.70;99.90
16700;DHT22;8466;52.286;21.124;2023-11-21T05:57:48;-0.60;99.90
16700;DHT22;8466;52.286;21.124;2023-11-21T06:00:17;-0.60;99.90
16700;DHT22;8466;52.286;21.124;2023-11-21T06:02:49;-0.60;99.90
16700;DHT22;8466;52.286;21.124;2023-11-21T06:05:22;-0.60;99.90
16700;DHT22;8466;52.286;21.124;2023-11-21T06:07:53;-0.60;99.90
16700;DHT22;8466;52.286;21.124;2023-11-21T06:10:25;-0.60;99.90
16700;DHT22;8466;52.286;21.124;2023-11-21T06:12:57;-0.60;99.90
16700;DHT22;8466;52.286;21.124;2023-11-21T06:15:30;-0.50;99.90
16700;DHT22;8466;52.286;21.124;2023-11-21T06:17:59;-0.50;99.90
16700;DHT22;8466;52.286;21.124;2023-11-21T06:20:28;-0.50;99.90
16700;DHT22;8466;52.286;21.124;2023-11-21T06:22:58;-0.40;99.90
16700;DHT22;8466;52.286;21.124;2023-11-21T06:25:33;-0.30;99.90
16700;DHT22;8466;52.286;21.124;2023-11-21T06:28:03;-0.40;99.90
16700;DHT22;8466;52.286;21.124;2023-11-21T06:30:32;-0.40;99.90
16700;DHT22;8466;52.286;21.124;2023-11-21T06:33:01;-0.50;99.90
16700;DHT22;8466;52.286;21.124;2023-11-21T06:35:29;-0.50;99.90
16700;DHT22;8466;52.286;21.124;2023-11-21T06:38:01;-0.50;99.90
16700;DHT22;8466;52.286;21.124;2023-11-21T06:40:31;-0.50;99.90
16700;DHT22;8466;52.286;21.124;2023-11-21T06:43:01;-0.40;99.90
16700;DHT22;8466;52.286;21.124;2023-11-21T06:45:32;-0.40;99.90
16700;DHT22;8466;52.286;21.124;2023-11-21T06:48:04;-0.30;99.90
16700;DHT22;8466;52.286;21.124;2023-11-21T06:50:36;-0.40;99.90
16700;DHT22;8466;52.286;21.124;2023-11-21T06:53:04;-0.40;99.90
16700;DHT22;8466;52.286;21.124;2023-11-21T06:55:36;-0.40;99.90
16700;DHT22;8466;52.286;21.124;2023-11-21T06:58:05;-0.40;99.90
16700;DHT22;8466;52.286;21.124;2023-11-21T07:00:34;-0.30;99.90
16700;DHT22;8466;52.286;21.124;2023-11-21T07:03:02;-0.30;99.90
16700;DHT22;8466;52.286;21.124;2023-11-21T07:05:31;-0.40;99.90
16700;DHT22;8466;52.286;21.124;2023-11-21T07:08:00;-0.50;99.90
16700;DHT22;8466;52.286;21.124;2023-11-21T07:10:32;-0.30;99.90
16700;DHT22;8466;52.286;21.124;2023-11-21T07:13:03;-0.30;99.90
16700;DHT22;8466;52.286;21.124;2023-11-21T07:15:32;-0.30;99.90
16700;DHT22;8466;52.286;21.124;2023-11-21T07:18:01;-0.20;99.90
16700;DHT22;8466;52.286;21.124;2023-11-21T07:20:30;-0.20;99.90
16700;DHT22;8466;52.286;21.124;2023-11-21T07:22:59;-0.20;99.90
16700;DHT22;8466;52.286;21.124;2023-11-21T07:25:28;-0.30;99.90
16700;DHT22;8466;52.286;21.124;2023-11-21T07:28:04;-0.30;99.90
16700;DHT22;8466;52.286;21.124;2023-11-21T07:30:33;-0.20;99.90
16700;DHT22;8466;52.286;21.124;2023-11-21T07:33:02;-0.20;99.90
16700;DHT22;8466;52.286;21.124;2023-11-21T07:35:32;-0.30;99.90
16700;DHT22;8466;52.286;21.124;2023-11-21T07:38:01;-0.20;99.90
16700;DHT22;8466;52.286;21.124;2023-11-21T07:40:31;-0.40;99.90
16700;DHT22;8466;52.286;21.124;2023-11-21T07:43:00;-0.20;99.90
16700;DHT22;8466;52.286;21.124;2023-11-21T07:45:31;-0.20;99.90
16700;DHT22;8466;52.286;21.124;2023-11-21T07:48:00;-0.20;99.90
16700;DHT22;8466;52.286;21.124;2023-11-21T07:50:31;-0.10;99.90
16700;DHT22;8466;52.286;21.124;2023-11-21T07:53:00;-0.20;99.90
16700;DHT22;8466;52.286;21.124;2023-11-21T07:55:32;-0.20;99.90
16700;DHT22;8466;52.286;21.124;2023-11-21T07:58:02;-0.10;99.90
16700;DHT22;8466;52.286;21.124;2023-11-21T08:00:32;-0.10;99.90
16700;DHT22;8466;52.286;21.124;2023-11-21T08:03:02;0.00;99.90
16700;DHT22;8466;52.286;21.124;2023-11-21T08:05:33;0.00;99.90
16700;DHT22;8466;52.286;21.124;2023-11-21T08:08:04;0.00;99.90
16700;DHT22;8466;52.286;21.124;2023-11-21T08:10:39;0.10;99.90
16700;DHT22;8466;52.286;21.124;2023-11-21T08:13:09;0.10;99.90
16700;DHT22;8466;52.286;21.124;2023-11-21T08:15:49;0.20;99.90
16700;DHT22;8466;52.286;21.124;2023-11-21T08:18:18;0.30;99.90
16700;DHT22;8466;52.286;21.124;2023-11-21T08:21:02;0.10;99.90
16700;DHT22;8466;52.286;21.124;2023-11-21T08:24:09;0.20;99.90
16700;DHT22;8466;52.286;21.124;2023-11-21T08:26:55;0.20;99.90
16700;DHT22;8466;52.286;21.124;2023-11-21T08:29:36;0.30;99.90
16700;DHT22;8466;52.286;21.124;2023-11-21T08:32:24;0.20;99.90
16700;DHT22;8466;52.286;21.124;2023-11-21T08:34:53;0.30;99.90
16700;DHT22;8466;52.286;21.124;2023-11-21T08:37:23;0.30;99.90
16700;DHT22;8466;52.286;21.124;2023-11-21T08:39:54;0.30;99.90
16700;DHT22;8466;52.286;21.124;2023-11-21T08:42:25;0.40;99.90
16700;DHT22;8466;52.286;21.124;2023-11-21T08:45:30;0.30;99.90
16700;DHT22;8466;52.286;21.124;2023-11-21T08:48:04;0.30;99.90
16700;DHT22;8466;52.286;21.124;2023-11-21T08:50:33;0.40;99.90
16700;DHT22;8466;52.286;21.124;2023-11-21T08:53:02;0.30;99.90
16700;DHT22;8466;52.286;21.124;2023-11-21T08:55:33;0.30;99.90
16700;DHT22;8466;52.286;21.124;2023-11-21T08:58:05;0.30;99.90
16700;DHT22;8466;52.286;21.124;2023-11-21T09:00:34;0.30;99.90
16700;DHT22;8466;52.286;21.124;2023-11-21T09:03:05;0.30;99.90
16700;DHT22;8466;52.286;21.124;2023-11-21T09:05:38;0.30;99.90
16700;DHT22;8466;52.286;21.124;2023-11-21T09:08:07;0.40;99.90
16700;DHT22;8466;52.286;21.124;2023-11-21T09:10:36;0.30;99.90
16700;DHT22;8466;52.286;21.124;2023-11-21T09:13:07;0.50;99.90
16700;DHT22;8466;52.286;21.124;2023-11-21T09:15:38;0.50;99.90
16700;DHT22;8466;52.286;21.124;2023-11-21T09:18:10;0.60;99.90
16700;DHT22;8466;52.286;21.124;2023-11-21T09:20:44;0.60;99.90
16700;DHT22;8466;52.286;21.124;2023-11-21T09:23:13;0.60;99.90
16700;DHT22;8466;52.286;21.124;2023-11-21T09:25:42;0.60;99.90
16700;DHT22;8466;52.286;21.124;2023-11-21T09:28:13;0.60;99.90
16700;DHT22;8466;52.286;21.124;2023-11-21T09:30:42;0.80;99.90
16700;DHT22;8466;52.286;21.124;2023-11-21T09:33:13;0.90;99.90
16700;DHT22;8466;52.286;21.124;2023-11-21T09:35:42;0.80;99.90
16700;DHT22;8466;52.286;21.124;2023-11-21T09:38:11;0.80;99.90
16700;DHT22;8466;52.286;21.124;2023-11-21T09:40:40;0.90;99.90
16700;DHT22;8466;52.286;21.124;2023-11-21T09:43:15;1.00;99.90
16700;DHT22;8466;52.286;21.124;2023-11-21T09:45:46;0.90;99.90
16700;DHT22;8466;52.286;21.124;2023-11-21T09:48:17;0.90;99.90
16700;DHT22;8466;52.286;21.124;2023-11-21T09:50:50;1.00;99.90
16700;DHT22;8466;52.286;21.124;2023-11-21T09:53:21;1.00;99.90
16700;DHT22;8466;52.286;21.124;2023-11-21T09:55:53;1.00;99.90
16700;DHT22;8466;52.286;21.124;2023-11-21T09:58:22;0.90;99.90
16700;DHT22;8466;52.286;21.124;2023-11-21T10:00:53;1.00;99.90
16700;DHT22;8466;52.286;21.124;2023-11-21T10:03:29;1.00;99.90
16700;DHT22;8466;52.286;21.124;2023-11-21T10:06:03;1.00;99.90
16700;DHT22;8466;52.286;21.124;2023-11-21T10:08:33;1.00;99.90
16700;DHT22;8466;52.286;21.124;2023-11-21T10:11:17;0.90;99.90
16700;DHT22;8466;52.286;21.124;2023-11-21T10:13:49;0.80;99.90
16700;DHT22;8466;52.286;21.124;2023-11-21T10:16:22;0.80;99.90
16700;DHT22;8466;52.286;21.124;2023-11-21T10:18:53;0.80;99.90
16700;DHT22;8466;52.286;21.124;2023-11-21T10:21:38;0.80;99.90
16700;DHT22;8466;52.286;21.124;2023-11-21T10:24:07;0.80;99.90
16700;DHT22;8466;52.286;21.124;2023-11-21T10:26:36;0.70;99.90
16700;DHT22;8466;52.286;21.124;2023-11-21T10:29:19;0.70;99.90
16700;DHT22;8466;52.286;21.124;2023-11-21T10:31:50;0.70;99.90
16700;DHT22;8466;52.286;21.124;2023-11-21T10:34:26;0.80;99.90
16700;DHT22;8466;52.286;21.124;2023-11-21T10:36:55;0.80;99.90
16700;DHT22;8466;52.286;21.124;2023-11-21T10:39:25;0.80;99.90
16700;DHT22;8466;52.286;21.124;2023-11-21T10:41:58;0.80;99.90
16700;DHT22;8466;52.286;21.124;2023-11-21T10:44:28;0.80;99.90
16700;DHT22;8466;52.286;21.124;2023-11-21T10:46:56;0.80;99.90
16700;DHT22;8466;52.286;21.124;2023-11-21T10:49:30;0.90;99.90
16700;DHT22;8466;52.286;21.124;2023-11-21T10:51:59;0.90;99.90
16700;DHT22;8466;52.286;21.124;2023-11-21T10:54:28;1.00;99.90
16700;DHT22;8466;52.286;21.124;2023-11-21T10:56:58;0.90;99.90
16700;DHT22;8466;52.286;21.124;2023-11-21T10:59:30;0.90;99.90
16700;DHT22;8466;52.286;21.124;2023-11-21T11:02:01;0.90;99.90
16700;DHT22;8466;52.286;21.124;2023-11-21T11:04:36;0.90;99.90
16700;DHT22;8466;52.286;21.124;2023-11-21T11:07:15;0.90;99.90
16700;DHT22;8466;52.286;21.124;2023-11-21T11:09:44;0.90;99.90
16700;DHT22;8466;52.286;21.124;2023-11-21T11:12:15;0.90;99.90
16700;DHT22;8466;52.286;21.124;2023-11-21T11:14:47;0.80;99.90
16700;DHT22;8466;52.286;21.124;2023-11-21T11:17:17;0.80;99.90
16700;DHT22;8466;52.286;21.124;2023-11-21T11:19:49;0.70;99.90
16700;DHT22;8466;52.286;21.124;2023-11-21T11:22:26;0.70;99.90
16700;DHT22;8466;52.286;21.124;2023-11-21T11:25:18;0.60;99.90
16700;DHT22;8466;52.286;21.124;2023-11-21T11:27:54;0.60;99.90
16700;DHT22;8466;52.286;21.124;2023-11-21T11:30:32;0.60;99.90
16700;DHT22;8466;52.286;21.124;2023-11-21T11:33:10;0.70;99.90
16700;DHT22;8466;52.286;21.124;2023-11-21T11:35:52;0.70;99.90
16700;DHT22;8466;52.286;21.124;2023-11-21T11:38:22;0.70;99.90
16700;DHT22;8466;52.286;21.124;2023-11-21T11:40:53;0.50;99.90
16700;DHT22;8466;52.286;21.124;2023-11-21T11:43:25;0.50;99.90
16700;DHT22;8466;52.286;21.124;2023-11-21T11:45:56;0.60;99.90
16700;DHT22;8466;52.286;21.124;2023-11-21T11:48:26;0.60;99.90
16700;DHT22;8466;52.286;21.124;2023-11-21T11:51:03;0.60;99.90
16700;DHT22;8466;52.286;21.124;2023-11-21T11:53:36;0.60;99.90
16700;DHT22;8466;52.286;21.124;2023-11-21T11:56:24;0.50;99.90
16700;DHT22;8466;52.286;21.124;2023-11-21T11:58:54;0.40;99.90
16700;DHT22;8466;52.286;21.124;2023-11-21T12:01:25;0.40;99.90
16700;DHT22;8466;52.286;21.124;2023-11-21T12:04:25;0.30;99.90
16700;DHT22;8466;52.286;21.124;2023-11-21T12:07:03;0.50;99.90
16700;DHT22;8466;52.286;21.124;2023-11-21T12:09:32;0.40;99.90
16700;DHT22;8466;52.286;21.124;2023-11-21T12:12:03;0.50;99.90
16700;DHT22;8466;52.286;21.124;2023-11-21T12:14:31;0.20;99.90
16700;DHT22;8466;52.286;21.124;2023-11-21T12:17:16;0.50;99.90
16700;DHT22;8466;52.286;21.124;2023-11-21T12:19:44;0.60;99.90
16700;DHT22;8466;52.286;21.124;2023-11-21T12:22:15;0.60;99.90
16700;DHT22;8466;52.286;21.124;2023-11-21T12:24:44;0.60;99.90
16700;DHT22;8466;52.286;21.124;2023-11-21T12:27:13;0.60;99.90
16700;DHT22;8466;52.286;21.124;2023-11-21T12:29:43;0.60;99.90
16700;DHT22;8466;52.286;21.124;2023-11-21T12:32:12;0.60;99.90
16700;DHT22;8466;52.286;21.124;2023-11-21T12:34:42;0.60;99.90
16700;DHT22;8466;52.286;21.124;2023-11-21T12:37:12;0.60;99.90
16700;DHT22;8466;52.286;21.124;2023-11-21T12:39:42;0.70;99.90
16700;DHT22;8466;52.286;21.124;2023-11-21T12:42:10;0.60;99.90
16700;DHT22;8466;52.286;21.124;2023-11-21T12:44:39;0.80;99.90
16700;DHT22;8466;52.286;21.124;2023-11-21T12:47:09;0.80;99.90
16700;DHT22;8466;52.286;21.124;2023-11-21T12:49:42;0.80;99.90
16700;DHT22;8466;52.286;21.124;2023-11-21T12:52:11;0.70;99.90
16700;DHT22;8466;52.286;21.124;2023-11-21T12:54:42;0.60;99.90
16700;DHT22;8466;52.286;21.124;2023-11-21T12:57:11;0.60;99.90
16700;DHT22;8466;52.286;21.124;2023-11-21T12:59:39;0.60;99.90
16700;DHT22;8466;52.286;21.124;2023-11-21T13:02:13;0.60;99.90
16700;DHT22;8466;52.286;21.124;2023-11-21T13:04:43;0.50;99.90
16700;DHT22;8466;52.286;21.124;2023-11-21T13:07:11;0.60;99.90
16700;DHT22;8466;52.286;21.124;2023-11-21T13:09:43;0.50;99.90
16700;DHT22;8466;52.286;21.124;2023-11-21T13:12:12;0.50;99.90
16700;DHT22;8466;52.286;21.124;2023-11-21T13:14:46;0.40;99.90
16700;DHT22;8466;52.286;21.124;2023-11-21T13:17:15;0.50;99.90
16700;DHT22;8466;52.286;21.124;2023-11-21T13:19:43;0.40;99.90
16700;DHT22;8466;52.286;21.124;2023-11-21T13:22:12;0.40;99.90
16700;DHT22;8466;52.286;21.124;2023-11-21T13:24:44;0.30;99.90
16700;DHT22;8466;52.286;21.124;2023-11-21T13:27:13;0.30;99.90
16700;DHT22;8466;52.286;21.124;2023-11-21T13:29:42;0.30;99.90
16700;DHT22;8466;52.286;21.124;2023-11-21T13:32:11;0.20;99.90
16700;DHT22;8466;52.286;21.124;2023-11-21T13:34:42;0.20;99.90
16700;DHT22;8466;52.286;21.124;2023-11-21T13:37:14;0.20;99.90
16700;DHT22;8466;52.286;21.124;2023-11-21T13:39:44;0.20;99.90
16700;DHT22;8466;52.286;21.124;2023-11-21T13:42:18;0.20;99.90
16700;DHT22;8466;52.286;21.124;2023-11-21T13:44:50;0.10;99.90
16700;DHT22;8466;52.286;21.124;2023-11-21T13:47:18;0.00;99.90
16700;DHT22;8466;52.286;21.124;2023-11-21T13:49:48;0.00;99.90
16700;DHT22;8466;52.286;21.124;2023-11-21T13:52:16;0.00;99.90
16700;DHT22;8466;52.286;21.124;2023-11-21T13:54:51;0.00;99.90
16700;DHT22;8466;52.286;21.124;2023-11-21T13:57:20;0.10;99.90
16700;DHT22;8466;52.286;21.124;2023-11-21T13:59:49;0.00;99.90
16700;DHT22;8466;52.286;21.124;2023-11-21T14:02:19;-0.10;99.90
16700;DHT22;8466;52.286;21.124;2023-11-21T14:04:55;-0.10;99.90
16700;DHT22;8466;52.286;21.124;2023-11-21T14:07:28;0.10;99.90
16700;DHT22;8466;52.286;21.124;2023-11-21T14:10:06;0.00;99.90
16700;DHT22;8466;52.286;21.124;2023-11-21T14:12:40;0.00;99.90
16700;DHT22;8466;52.286;21.124;2023-11-21T14:15:10;0.00;99.90
16700;DHT22;8466;52.286;21.124;2023-11-21T14:17:44;0.00;99.90
16700;DHT22;8466;52.286;21.124;2023-11-21T14:20:13;0.00;99.90
16700;DHT22;8466;52.286;21.124;2023-11-21T14:22:44;0.00;99.90
16700;DHT22;8466;52.286;21.124;2023-11-21T14:25:16;0.00;99.90
16700;DHT22;8466;52.286;21.124;2023-11-21T14:27:46;-0.10;99.90
16700;DHT22;8466;52.286;21.124;2023-11-21T14:30:14;-0.10;99.90
16700;DHT22;8466;52.286;21.124;2023-11-21T14:32:46;-0.20;99.90
16700;DHT22;8466;52.286;21.124;2023-11-21T14:35:15;-0.30;99.90
16700;DHT22;8466;52.286;21.124;2023-11-21T14:37:44;-0.30;99.90
16700;DHT22;8466;52.286;21.124;2023-11-21T14:40:15;-0.30;99.90
16700;DHT22;8466;52.286;21.124;2023-11-21T14:42:48;-0.20;99.90
16700;DHT22;8466;52.286;21.124;2023-11-21T14:45:19;-0.20;99.90
16700;DHT22;8466;52.286;21.124;2023-11-21T14:47:48;-0.20;99.90
16700;DHT22;8466;52.286;21.124;2023-11-21T14:50:25;-0.30;99.90
16700;DHT22;8466;52.286;21.124;2023-11-21T14:53:37;-0.30;99.90
16700;DHT22;8466;52.286;21.124;2023-11-21T14:56:22;-0.40;99.90
16700;DHT22;8466;52.286;21.124;2023-11-21T14:58:55;-0.40;99.90
16700;DHT22;8466;52.286;21.124;2023-11-21T15:01:24;-0.40;99.90
16700;DHT22;8466;52.286;21.124;2023-11-21T15:04:10;-0.40;99.90
16700;DHT22;8466;52.286;21.124;2023-11-21T15:06:52;-0.40;99.90
16700;DHT22;8466;52.286;21.124;2023-11-21T15:09:21;-0.40;99.90
16700;DHT22;8466;52.286;21.124;2023-11-21T15:12:05;-0.40;99.90
16700;DHT22;8466;52.286;21.124;2023-11-21T15:14:43;-0.70;99.90
16700;DHT22;8466;52.286;21.124;2023-11-21T15:17:13;-0.50;99.90
16700;DHT22;8466;52.286;21.124;2023-11-21T15:19:50;-0.40;99.90
16700;DHT22;8466;52.286;21.124;2023-11-21T15:22:19;-0.50;99.90
16700;DHT22;8466;52.286;21.124;2023-11-21T15:24:48;-0.40;99.90
16700;DHT22;8466;52.286;21.124;2023-11-21T15:27:18;-0.40;99.90
16700;DHT22;8466;52.286;21.124;2023-11-21T15:29:47;-0.50;99.90
16700;DHT22;8466;52.286;21.124;2023-11-21T15:32:17;-0.50;99.90
16700;DHT22;8466;52.286;21.124;2023-11-21T15:34:46;-0.50;99.90
16700;DHT22;8466;52.286;21.124;2023-11-21T15:37:15;-0.50;99.90
16700;DHT22;8466;52.286;21.124;2023-11-21T15:39:44;-0.60;99.90
16700;DHT22;8466;52.286;21.124;2023-11-21T15:42:14;-0.60;99.90
16700;DHT22;8466;52.286;21.124;2023-11-21T15:44:44;-0.60;99.90
16700;DHT22;8466;52.286;21.124;2023-11-21T15:47:13;-0.60;99.90
16700;DHT22;8466;52.286;21.124;2023-11-21T15:49:42;-0.50;99.90
16700;DHT22;8466;52.286;21.124;2023-11-21T15:52:16;-0.50;99.90
16700;DHT22;8466;52.286;21.124;2023-11-21T15:54:46;-0.60;99.90
16700;DHT22;8466;52.286;21.124;2023-11-21T15:57:16;-0.60;99.90
16700;DHT22;8466;52.286;21.124;2023-11-21T15:59:51;-0.60;99.90
16700;DHT22;8466;52.286;21.124;2023-11-21T16:02:20;-0.60;99.90
16700;DHT22;8466;52.286;21.124;2023-11-21T16:04:49;-0.60;99.90